Time;durP1;ratioP1;P1;durP2;ratioP2;P2;SDS_P1;SDS_P2;PMS_P1;PMS_P2;Temp;Humidity;BMP_temperature;BMP_pressure;BME280_temperature;BME280_humidity;BME280_pressure;Samples;Min_cycle;Max_cycle;Signal;HPM_P1;HPM_P2
2023/03/27 00:03:00;;;;;;;10.60;6.70;;;;;;;7.45;73.84;98815.61;129870;1274;114818;-65
2023/03/27 00:06:08;;;;;;;14.60;7.50;;;;;;;7.44;74.09;98818.49;130427;1258;114841;-66
2023/03/27 00:09:10;;;;;;;9.20;6.20;;;;;;;7.44;74.14;98809.80;130364;1254;115325;-66
2023/03/27 00:12:13;;;;;;;10.50;5.70;;;;;;;7.43;73.97;98801.71;130174;1259;114733;-66
2023/03/27 00:15:16;;;;;;;10.50;5.80;;;;;;;7.42;73.84;98793.22;130234;1259;114728;-65
2023/03/27 00:18:18;;;;;;;9.40;5.30;;;;;;;7.43;74.29;98789.47;130110;1261;114802;-66
2023/03/27 00:21:21;;;;;;;10.10;5.90;;;;;;;7.43;74.15;98787.11;130293;1261;114809;-66
2023/03/27 00:24:23;;;;;;;8.70;5.50;;;;;;;7.44;74.23;98787.42;130175;1254;114740;-66
2023/03/27 00:27:25;;;;;;;7.40;5.00;;;;;;;7.44;74.16;98786.34;129844;1259;115214;-66
2023/03/27 00:30:29;;;;;;;9.90;5.80;;;;;;;7.44;74.06;98787.45;130195;1259;115328;-66
2023/03/27 00:33:31;;;;;;;12.40;5.70;;;;;;;7.43;74.17;98785.34;130269;1258;114753;-65
2023/03/27 00:36:33;;;;;;;10.60;5.60;;;;;;;7.43;74.29;98778.79;130111;1259;114731;-66
2023/03/27 00:39:36;;;;;;;7.30;4.80;;;;;;;7.43;74.11;98774.71;129916;1272;114710;-66
2023/03/27 00:42:38;;;;;;;8.10;5.40;;;;;;;7.42;74.39;98770.84;129911;1259;128802;-66
2023/03/27 00:45:40;;;;;;;10.50;5.90;;;;;;;7.41;74.30;98772.20;129853;1259;114796;-65
2023/03/27 00:48:46;;;;;;;11.50;6.10;;;;;;;7.37;74.24;98773.10;130026;1253;115483;-65
2023/03/27 00:51:51;;;;;;;9.70;6.20;;;;;;;7.37;74.51;98774.92;130372;1276;114748;-65
2023/03/27 00:54:54;;;;;;;;;;;;;;;7.36;74.42;98777.81;129976;1254;114888;-66
2023/03/27 00:58:03;;;;;;;11.20;5.60;;;;;;;7.33;74.42;98777.80;129687;1276;127572;-66
2023/03/27 01:01:06;;;;;;;11.70;6.70;;;;;;;7.32;74.66;98778.77;130341;1253;115252;-65
2023/03/27 01:04:08;;;;;;;9.50;6.40;;;;;;;7.31;74.71;98775.24;129669;1259;114808;-66
2023/03/27 01:07:11;;;;;;;10.90;6.40;;;;;;;7.30;74.79;98771.75;130305;1254;114766;-66
2023/03/27 01:10:14;;;;;;;9.70;6.30;;;;;;;7.29;74.81;98775.33;130295;1259;115389;-66
2023/03/27 01:13:23;;;;;;;10.20;6.80;;;;;;;7.29;74.93;98772.15;130049;1257;114814;-66
2023/03/27 01:17:05;;;;;;;7.00;6.10;;;;;;;7.28;74.63;98770.80;130452;1255;114942;-66
2023/03/27 01:20:22;;;;;;;10.40;7.40;;;;;;;7.27;74.89;98768.41;130376;1276;114795;-67
2023/03/27 01:23:30;;;;;;;10.90;6.80;;;;;;;7.26;74.97;98768.27;130347;1259;115059;-66
2023/03/27 01:27:05;;;;;;;11.40;7.00;;;;;;;7.25;74.70;98765.14;130094;1276;114798;-66
2023/03/27 01:30:47;;;;;;;12.70;7.80;;;;;;;7.24;74.74;98761.80;130078;1260;128019;-65
2023/03/27 01:34:11;;;;;;;9.60;6.80;;;;;;;7.23;74.71;98762.21;130266;1254;115214;-66
2023/03/27 01:37:37;;;;;;;11.30;6.40;;;;;;;7.23;75.15;98762.98;130298;1254;114815;-65
2023/03/27 01:41:19;;;;;;;11.20;6.60;;;;;;;7.23;75.20;98762.98;130372;1257;114804;-66
2023/03/27 01:44:54;;;;;;;10.60;5.70;;;;;;;7.21;75.15;98762.02;130014;1276;114897;-66
2023/03/27 01:48:14;;;;;;;11.60;6.30;;;;;;;7.19;75.08;98764.95;130092;1276;127768;-65
2023/03/27 01:51:31;;;;;;;9.90;6.10;;;;;;;7.18;75.02;98768.98;129850;1254;116561;-66
2023/03/27 01:54:35;;;;;;;9.50;6.10;;;;;;;7.17;75.01;98765.43;130233;1254;114813;-66
2023/03/27 01:57:50;;;;;;;12.70;6.50;;;;;;;7.17;75.00;98767.06;129841;1260;114845;-66
2023/03/27 02:00:55;;;;;;;10.30;6.40;;;;;;;7.17;75.20;98771.33;129963;1259;115529;-66
2023/03/27 02:03:58;;;;;;;;;;;;;;;7.16;74.96;98772.77;129920;1278;128812;-66
2023/03/27 02:07:04;;;;;;;16.70;8.80;;;;;;;7.13;75.05;98771.56;130248;1259;114795;-66
2023/03/27 02:10:12;;;;;;;14.60;9.10;;;;;;;7.10;74.80;98770.50;130106;1259;114952;-66
2023/03/27 02:13:35;;;;;;;17.70;11.50;;;;;;;7.07;75.00;98776.50;130216;1259;114741;-66
2023/03/27 02:16:41;;;;;;;22.90;13.00;;;;;;;7.03;74.88;98774.80;130269;1254;114884;-66
2023/03/27 02:19:53;;;;;;;22.40;14.10;;;;;;;6.99;75.11;98772.89;130156;1277;128841;-66
2023/03/27 02:22:59;;;;;;;29.50;16.00;;;;;;;6.95;74.76;98772.73;130048;1262;115275;-66
2023/03/27 02:26:01;;;;;;;33.20;17.60;;;;;;;6.92;74.93;98774.74;130129;1254;115157;-66
2023/03/27 02:29:25;;;;;;;33.90;19.00;;;;;;;6.88;75.06;98777.44;130133;1256;115473;-66
2023/03/27 02:32:36;;;;;;;33.90;21.30;;;;;;;6.86;75.10;98780.96;130196;1259;114786;-65
2023/03/27 02:35:51;;;;;;;29.30;18.50;;;;;;;6.82;75.20;98790.02;130144;1268;129216;-66
2023/03/27 02:39:01;;;;;;;34.70;20.60;;;;;;;6.79;75.14;98798.03;129871;1259;114983;-65
2023/03/27 02:42:11;;;;;;;38.60;20.90;;;;;;;6.75;75.25;98797.90;130203;1258;114834;-67
2023/03/27 02:45:28;;;;;;;31.70;18.60;;;;;;;6.71;75.19;98798.13;129977;1259;115006;-66
2023/03/27 02:48:34;;;;;;;34.90;21.60;;;;;;;6.66;75.18;98802.65;130125;1259;114808;-65
2023/03/27 02:51:43;;;;;;;34.00;20.50;;;;;;;6.60;75.14;98808.73;129651;1257;126854;-66
2023/03/27 02:54:52;;;;;;;37.10;23.30;;;;;;;6.53;75.26;98815.96;129814;1275;115427;-66
2023/03/27 02:57:59;;;;;;;43.50;22.40;;;;;;;6.48;75.42;98817.52;130234;1257;114750;-65
2023/03/27 03:01:01;;;;;;;38.00;21.80;;;;;;;6.43;75.67;98821.54;130015;1254;114896;-66
2023/03/27 03:04:15;;;;;;;37.00;24.00;;;;;;;6.38;75.68;98832.48;130103;1259;114846;-66
2023/03/27 03:07:17;;;;;;;38.80;23.50;;;;;;;6.29;75.67;98839.88;129602;1264;126692;-65
2023/03/27 03:10:20;;;;;;;38.40;22.50;;;;;;;6.20;75.70;98847.83;129834;1277;114805;-66
2023/03/27 03:13:22;;;;;;;29.80;20.10;;;;;;;6.10;75.77;98852.95;129984;1259;114741;-67
2023/03/27 03:16:26;;;;;;;37.30;20.80;;;;;;;5.99;75.77;98853.35;130217;1275;114811;-67
2023/03/27 03:19:28;;;;;;;30.10;18.60;;;;;;;5.89;75.88;98862.05;129917;1260;114885;-67
2023/03/27 03:22:30;;;;;;;32.70;19.00;;;;;;;5.80;75.85;98872.08;130211;1259;114748;-65
2023/03/27 03:25:32;;;;;;;30.50;16.50;;;;;;;5.72;75.93;98877.26;130326;1258;114740;-66
2023/03/27 03:28:36;;;;;;;26.10;14.40;;;;;;;5.65;76.03;98883.12;129625;1262;127577;-67
2023/03/27 03:31:44;;;;;;;25.90;12.60;;;;;;;5.59;75.91;98891.03;130310;1259;114824;-67
2023/03/27 03:34:46;;;;;;;24.80;12.30;;;;;;;5.52;75.91;98898.48;130266;1257;114730;-67
2023/03/27 03:37:50;;;;;;;25.80;11.80;;;;;;;5.46;76.04;98902.67;130256;1257;114711;-67
2023/03/27 03:40:58;;;;;;;25.20;11.00;;;;;;;5.40;75.99;98911.13;130289;1273;114700;-67
2023/03/27 03:44:00;;;;;;;23.30;9.90;;;;;;;5.31;75.75;98911.55;129951;1257;127827;-67
2023/03/27 03:47:03;;;;;;;22.70;8.50;;;;;;;5.23;75.73;98918.21;130201;1258;115215;-67
2023/03/27 03:50:05;;;;;;;23.60;7.20;;;;;;;5.14;75.42;98923.20;130289;1276;114718;-67
2023/03/27 03:53:07;;;;;;;26.20;6.40;;;;;;;5.02;75.07;98929.11;130292;1254;114804;-67
2023/03/27 03:56:10;;;;;;;20.10;6.10;;;;;;;4.90;75.17;98934.11;129949;1257;116400;-67
2023/03/27 03:59:12;;;;;;;24.20;5.80;;;;;;;4.79;75.28;98935.02;130229;1257;114817;-66
2023/03/27 04:02:27;;;;;;;21.40;5.60;;;;;;;4.67;75.08;98944.58;130316;1253;114747;-68
2023/03/27 04:05:30;;;;;;;13.00;4.70;;;;;;;4.55;75.00;98953.09;130278;1276;128798;-68
2023/03/27 04:08:34;;;;;;;14.90;4.60;;;;;;;4.46;74.89;98959.36;130258;1257;114714;-67
2023/03/27 04:11:36;;;;;;;19.30;4.70;;;;;;;4.35;75.05;98963.91;129606;1254;114937;-66
2023/03/27 04:14:38;;;;;;;16.00;5.30;;;;;;;4.18;74.74;98968.75;130065;1253;114804;-66
2023/03/27 04:17:41;;;;;;;9.30;3.90;;;;;;;4.03;74.74;98977.56;130068;1257;114728;-66
2023/03/27 04:20:48;;;;;;;13.60;4.70;;;;;;;3.88;74.80;98982.44;130361;1259;115408;-69
2023/03/27 04:23:52;;;;;;;10.60;4.30;;;;;;;3.73;75.12;98985.17;129891;1255;128020;-68
2023/03/27 04:26:57;;;;;;;6.70;3.40;;;;;;;3.56;75.29;98991.88;130007;1255;114916;-69
2023/03/27 04:29:59;;;;;;;12.10;4.10;;;;;;;3.40;75.54;98998.59;129988;1259;114844;-70
2023/03/27 04:33:01;;;;;;;8.90;3.90;;;;;;;3.23;75.63;99004.89;130108;1254;114743;-67
2023/03/27 04:36:07;;;;;;;11.50;4.10;;;;;;;3.10;75.64;99010.70;130117;1273;114799;-68
2023/03/27 04:39:09;;;;;;;9.10;3.50;;;;;;;2.97;75.92;99017.58;130203;1277;128781;-68
2023/03/27 04:42:13;;;;;;;9.20;3.50;;;;;;;2.84;75.92;99015.95;129921;1258;114731;-69
2023/03/27 04:45:16;;;;;;;14.10;4.30;;;;;;;2.70;76.07;99019.63;130313;1259;114824;-68
2023/03/27 04:48:19;;;;;;;20.10;7.90;;;;;;;2.60;76.69;99026.21;130186;1259;114735;-68
2023/03/27 04:51:22;;;;;;;16.30;7.10;;;;;;;2.47;76.76;99027.23;130087;1276;115164;-66
2023/03/27 04:54:25;;;;;;;14.40;7.00;;;;;;;2.37;77.23;99034.44;130009;1277;114708;-69
2023/03/27 04:57:29;;;;;;;15.70;6.50;;;;;;;2.31;77.46;99038.55;130026;1275;114795;-69
2023/03/27 05:00:32;;;;;;;14.30;6.10;;;;;;;2.26;77.68;99043.98;129738;1257;115139;-69
2023/03/27 05:03:34;;;;;;;11.60;5.90;;;;;;;2.23;77.65;99049.23;130259;1259;114797;-67
2023/03/27 05:06:36;;;;;;;13.50;5.30;;;;;;;2.22;77.59;99058.94;129908;1277;115311;-67
2023/03/27 05:09:39;;;;;;;9.00;5.40;;;;;;;2.23;77.80;99063.67;130094;1278;114740;-67
2023/03/27 05:12:43;;;;;;;8.10;5.10;;;;;;;2.22;78.05;99071.27;129781;1270;128348;-68
2023/03/27 05:15:45;;;;;;;11.10;6.20;;;;;;;2.21;78.10;99081.33;129963;1278;115163;-69
2023/03/27 05:18:48;;;;;;;11.40;5.30;;;;;;;2.21;78.31;99091.92;130076;1275;114808;-68
2023/03/27 05:21:51;;;;;;;10.50;5.20;;;;;;;2.18;78.00;99103.27;129964;1259;114747;-68
2023/03/27 05:24:53;;;;;;;14.20;5.90;;;;;;;2.17;78.04;99105.24;129962;1276;114777;-68
2023/03/27 05:27:55;;;;;;;12.70;5.60;;;;;;;2.18;78.10;99114.03;129952;1258;115273;-66
2023/03/27 05:30:58;;;;;;;12.20;5.40;;;;;;;2.17;78.15;99117.40;129784;1276;127911;-66
2023/03/27 05:34:01;;;;;;;10.30;5.10;;;;;;;2.17;78.48;99126.02;130079;1276;114728;-67
2023/03/27 05:37:04;;;;;;;8.80;4.40;;;;;;;2.18;78.15;99134.27;130014;1257;114872;-67
2023/03/27 05:40:07;;;;;;;7.30;4.50;;;;;;;2.19;78.10;99135.64;130133;1258;115175;-67
2023/03/27 05:43:10;;;;;;;8.20;4.00;;;;;;;2.17;77.83;99142.95;130072;1276;114732;-67
2023/03/27 05:46:13;;;;;;;4.30;3.40;;;;;;;2.13;77.96;99151.00;130039;1275;114789;-66
2023/03/27 05:49:15;;;;;;;6.20;3.50;;;;;;;2.08;77.95;99163.14;130102;1269;115095;-64
2023/03/27 05:52:17;;;;;;;6.00;3.10;;;;;;;2.00;77.77;99173.27;129937;1276;115230;-66
2023/03/27 05:55:19;;;;;;;5.20;2.90;;;;;;;1.94;77.63;99184.38;130003;1259;114734;-66
2023/03/27 05:58:22;;;;;;;6.50;3.20;;;;;;;1.91;77.58;99199.09;129991;1276;114728;-65
2023/03/27 06:01:24;;;;;;;8.30;3.30;;;;;;;1.89;77.69;99212.73;130008;1275;114815;-67
2023/03/27 06:04:27;;;;;;;7.20;2.90;;;;;;;1.85;77.59;99219.70;130028;1259;114814;-67
2023/03/27 06:07:29;;;;;;;7.20;3.00;;;;;;;1.84;77.94;99223.80;130102;1269;114751;-65
2023/03/27 06:10:32;;;;;;;4.10;2.90;;;;;;;1.82;77.69;99235.64;130117;1276;114722;-67
2023/03/27 06:13:35;;;;;;;8.20;3.40;;;;;;;1.82;77.80;99238.45;129954;1276;114802;-67
2023/03/27 06:16:39;;;;;;;8.80;3.50;;;;;;;1.80;77.69;99248.20;130083;1257;114749;-67
2023/03/27 06:19:41;;;;;;;4.40;3.40;;;;;;;1.75;77.59;99255.90;129734;1263;114834;-67
2023/03/27 06:22:46;;;;;;;6.00;3.60;;;;;;;1.72;77.92;99259.54;130013;1258;114796;-66
2023/03/27 06:25:48;;;;;;;6.40;4.00;;;;;;;1.68;77.77;99265.27;129670;1276;127863;-67
2023/03/27 06:28:51;;;;;;;7.00;4.50;;;;;;;1.68;78.18;99277.07;129917;1276;114996;-66
2023/03/27 06:32:00;;;;;;;8.00;4.80;;;;;;;1.68;77.84;99283.23;129892;1258;114798;-66
2023/03/27 06:35:03;;;;;;;8.60;4.70;;;;;;;1.65;77.88;99291.41;130034;1256;114844;-66
2023/03/27 06:38:05;;;;;;;11.50;5.20;;;;;;;1.61;77.60;99292.60;130018;1276;114759;-68
2023/03/27 06:41:09;;;;;;;9.60;4.70;;;;;;;1.57;78.04;99306.10;130043;1274;115327;-67
2023/03/27 06:44:11;;;;;;;10.20;4.90;;;;;;;1.55;77.98;99310.91;129993;1276;115100;-67
2023/03/27 06:47:14;;;;;;;8.50;5.20;;;;;;;1.54;78.33;99318.49;130061;1259;114769;-67
2023/03/27 06:50:17;;;;;;;8.40;5.50;;;;;;;1.54;78.12;99323.77;129967;1259;114820;-67
2023/03/27 06:53:20;;;;;;;7.50;5.80;;;;;;;1.58;78.20;99334.40;130182;1276;115090;-66
2023/03/27 06:56:22;;;;;;;7.80;6.20;;;;;;;1.62;78.16;99337.09;130025;1259;114728;-66
2023/03/27 06:59:24;;;;;;;13.20;6.70;;;;;;;1.68;78.51;99338.69;130051;1258;114718;-67
2023/03/27 07:02:27;;;;;;;8.00;5.70;;;;;;;1.75;78.65;99340.60;130042;1275;115335;-66
2023/03/27 07:05:35;;;;;;;9.60;6.80;;;;;;;1.81;78.78;99343.77;130151;1259;114808;-65
2023/03/27 07:08:37;;;;;;;13.20;7.60;;;;;;;1.88;78.82;99346.55;130084;1263;115193;-67
2023/03/27 07:11:39;;;;;;;15.70;8.20;;;;;;;1.95;79.12;99350.75;130027;1276;115483;-66
2023/03/27 07:14:42;;;;;;;9.40;6.90;;;;;;;2.01;78.84;99357.64;130021;1254;114789;-67
2023/03/27 07:17:55;;;;;;;9.80;6.90;;;;;;;2.05;78.79;99355.92;130158;1254;115679;-67
2023/03/27 07:20:57;;;;;;;9.00;7.10;;;;;;;2.10;78.84;99367.38;129995;1276;128999;-66
2023/03/27 07:24:00;;;;;;;13.90;7.60;;;;;;;2.17;78.75;99368.41;129921;1277;115173;-66
2023/03/27 07:27:02;;;;;;;13.80;8.80;;;;;;;2.27;79.11;99368.48;130086;1259;114754;-66
2023/03/27 07:30:07;;;;;;;14.50;7.60;;;;;;;2.35;79.01;99374.21;130017;1278;114738;-67
2023/03/27 07:33:09;;;;;;;13.20;8.20;;;;;;;2.42;79.00;99378.05;129616;1257;114831;-67
2023/03/27 07:36:13;;;;;;;10.40;6.90;;;;;;;2.51;79.28;99381.98;129951;1277;114746;-66
2023/03/27 07:39:15;;;;;;;11.50;6.00;;;;;;;2.59;78.85;99380.71;129956;1259;114742;-68
2023/03/27 07:42:18;;;;;;;8.30;4.80;;;;;;;2.63;78.31;99388.33;129968;1275;115363;-67
2023/03/27 07:45:22;;;;;;;11.90;3.90;;;;;;;2.66;77.75;99389.99;130009;1275;114722;-67
2023/03/27 07:48:26;;;;;;;8.40;4.20;;;;;;;2.68;77.29;99398.91;130048;1259;114760;-67
2023/03/27 07:51:29;;;;;;;5.80;3.90;;;;;;;2.73;77.64;99405.98;129949;1259;114850;-66
2023/03/27 07:54:31;;;;;;;8.70;4.50;;;;;;;2.77;77.18;99409.91;129898;1259;114762;-66
2023/03/27 07:57:44;;;;;;;8.80;5.20;;;;;;;2.79;76.76;99416.38;129934;1277;114722;-66
2023/03/27 08:00:53;;;;;;;5.20;3.30;;;;;;;2.85;76.72;99422.55;129906;1259;114737;-66
2023/03/27 08:03:56;;;;;;;4.70;3.20;;;;;;;2.93;76.55;99428.45;129942;1260;114765;-65
2023/03/27 08:06:59;;;;;;;5.00;3.00;;;;;;;3.03;76.35;99428.85;129940;1277;114738;-66
2023/03/27 08:10:03;;;;;;;7.90;3.70;;;;;;;3.23;76.42;99433.84;129981;1275;114748;-66
2023/03/27 08:13:05;;;;;;;8.20;3.40;;;;;;;3.44;76.24;99433.45;130080;1278;115243;-65
2023/03/27 08:16:13;;;;;;;5.90;2.80;;;;;;;3.62;75.61;99437.98;130015;1276;114833;-65
2023/03/27 08:19:17;;;;;;;3.50;2.80;;;;;;;3.70;75.20;99437.53;129612;1278;115119;-65
2023/03/27 08:22:21;;;;;;;8.50;3.70;;;;;;;3.77;74.93;99437.28;129984;1276;114757;-66
2023/03/27 08:25:23;;;;;;;5.40;3.40;;;;;;;3.75;73.53;99445.65;130411;1276;114801;-66
2023/03/27 08:28:30;;;;;;;11.10;3.00;;;;;;;3.72;73.77;99446.15;129895;1276;115231;-65
2023/03/27 08:31:33;;;;;;;5.10;3.30;;;;;;;3.73;73.40;99448.71;130317;1259;114901;-65
2023/03/27 08:34:36;;;;;;;5.20;3.10;;;;;;;3.71;72.33;99461.89;130116;1254;114725;-66
2023/03/27 08:37:40;;;;;;;5.90;2.70;;;;;;;3.69;72.62;99464.25;130078;1259;114861;-65
2023/03/27 08:40:47;;;;;;;5.10;2.40;;;;;;;3.68;72.22;99468.50;129620;1276;128658;-66
2023/03/27 08:43:52;;;;;;;5.00;2.20;;;;;;;3.65;71.70;99466.31;130392;1259;115355;-66
2023/03/27 08:46:59;;;;;;;4.60;2.50;;;;;;;3.59;71.55;99473.23;130190;1259;114814;-66
2023/03/27 08:50:08;;;;;;;6.20;2.80;;;;;;;3.57;71.71;99473.27;130240;1259;114902;-66
2023/03/27 08:53:19;;;;;;;6.30;2.80;;;;;;;3.59;71.84;99477.83;130343;1259;114731;-65
2023/03/27 08:56:24;;;;;;;4.30;2.30;;;;;;;3.55;70.58;99476.89;129605;1276;127931;-66
2023/03/27 08:59:30;;;;;;;4.70;2.40;;;;;;;3.52;70.64;99480.18;130016;1258;114796;-66
2023/03/27 09:02:43;;;;;;;4.10;2.80;;;;;;;3.53;70.32;99478.38;130109;1261;114702;-66
2023/03/27 09:05:59;;;;;;;7.30;2.50;;;;;;;3.52;69.84;99482.64;130152;1276;114749;-66
2023/03/27 09:09:16;;;;;;;6.30;3.30;;;;;;;3.48;69.31;99487.71;130372;1276;114718;-66
2023/03/27 09:12:28;;;;;;;4.30;2.60;;;;;;;3.44;69.21;99499.52;129870;1276;128343;-65
2023/03/27 09:15:57;;;;;;;6.10;2.90;;;;;;;3.42;69.25;99497.10;130033;1259;115185;-66
2023/03/27 09:19:49;;;;;;;10.30;4.50;;;;;;;3.40;69.04;99505.44;129966;1260;114759;-66
2023/03/27 09:23:01;;;;;;;8.50;4.30;;;;;;;3.41;69.24;99513.88;129908;1257;115169;-65
2023/03/27 09:26:10;;;;;;;8.90;2.90;;;;;;;3.44;69.14;99510.61;129614;1259;114929;-66
2023/03/27 09:29:21;;;;;;;5.00;2.70;;;;;;;3.46;68.95;99519.91;129991;1260;128086;-66
2023/03/27 09:32:23;;;;;;;6.10;3.70;;;;;;;3.45;68.86;99520.81;130256;1278;115195;-66
2023/03/27 09:35:25;;;;;;;6.20;3.20;;;;;;;3.44;68.84;99522.27;130332;1272;114843;-66
2023/03/27 09:38:49;;;;;;;3.30;2.90;;;;;;;3.44;68.91;99522.61;130094;1267;114795;-66
2023/03/27 09:41:55;;;;;;;8.20;3.90;;;;;;;3.43;69.01;99532.20;129706;1257;114921;-66
2023/03/27 09:45:02;;;;;;;5.80;3.20;;;;;;;3.43;69.00;99540.30;129982;1267;114753;-66
2023/03/27 09:48:08;;;;;;;6.70;3.60;;;;;;;3.45;69.01;99548.89;129656;1278;127705;-65
2023/03/27 09:51:47;;;;;;;4.30;2.40;;;;;;;3.46;68.82;99551.70;129894;1276;115173;-67
2023/03/27 09:54:54;;;;;;;5.60;3.50;;;;;;;3.45;68.39;99550.11;129995;1262;114821;-65
2023/03/27 09:58:14;;;;;;;5.20;2.70;;;;;;;3.52;68.52;99556.77;130122;1276;115083;-66
2023/03/27 10:01:27;;;;;;;6.00;3.20;;;;;;;3.65;68.85;99557.59;129935;1270;114821;-66
2023/03/27 10:04:30;;;;;;;9.30;3.30;;;;;;;3.82;68.67;99561.80;130016;1268;128795;-66
2023/03/27 10:07:32;;;;;;;4.50;3.00;;;;;;;3.93;68.36;99568.83;129901;1254;115249;-65
2023/03/27 10:10:40;;;;;;;10.40;3.60;;;;;;;4.01;68.48;99574.05;129915;1259;114872;-65
2023/03/27 10:13:46;;;;;;;5.40;3.00;;;;;;;4.09;68.70;99577.85;129745;1259;114801;-66
2023/03/27 10:16:48;;;;;;;8.70;3.20;;;;;;;4.20;68.38;99584.34;130024;1276;114756;-65
2023/03/27 10:20:00;;;;;;;5.40;3.20;;;;;;;4.31;67.51;99577.96;130053;1259;115111;-66
2023/03/27 10:23:07;;;;;;;4.20;2.70;;;;;;;4.43;67.62;99585.87;129924;1276;115240;-66
2023/03/27 10:26:16;;;;;;;5.60;2.90;;;;;;;4.55;67.86;99590.02;130080;1254;114977;-66
2023/03/27 10:29:28;;;;;;;6.30;3.70;;;;;;;4.66;67.43;99599.52;129698;1262;114854;-66
2023/03/27 10:32:43;;;;;;;3.50;2.80;;;;;;;4.79;67.61;99604.70;129728;1254;114795;-66
2023/03/27 10:35:47;;;;;;;6.80;3.20;;;;;;;4.88;66.84;99610.39;129725;1264;340523;-65
2023/03/27 10:39:00;;;;;;;10.00;7.00;;;;;;;4.95;67.02;99615.99;129677;1259;115269;-65
2023/03/27 10:42:07;;;;;;;6.50;3.60;;;;;;;5.02;66.49;99625.09;129985;1260;114727;-65
2023/03/27 10:45:17;;;;;;;11.30;5.50;;;;;;;5.08;66.20;99627.36;129777;1260;114906;-66
2023/03/27 10:49:00;;;;;;;7.50;2.90;;;;;;;5.18;66.43;99622.89;130053;1276;114719;-65
2023/03/27 10:52:27;;;;;;;8.30;3.30;;;;;;;5.24;65.22;99627.29;129202;1285;127623;-66
2023/03/27 10:55:43;;;;;;;4.20;3.00;;;;;;;5.21;63.42;99631.27;129076;1268;115265;-67
2023/03/27 10:58:50;;;;;;;7.30;3.40;;;;;;;5.23;64.19;99631.05;129153;1284;114914;-66
2023/03/27 11:01:56;;;;;;;4.50;3.00;;;;;;;5.22;63.39;99632.48;129101;1274;115184;-65
2023/03/27 11:05:03;;;;;;;6.40;3.80;;;;;;;5.13;63.45;99632.27;128814;1275;114832;-65
2023/03/27 11:08:30;;;;;;;8.20;3.10;;;;;;;5.09;63.52;99637.02;128439;1284;127885;-66
2023/03/27 11:11:36;;;;;;;5.30;2.80;;;;;;;4.98;63.33;99637.82;128779;1276;114951;-66
2023/03/27 11:14:46;;;;;;;7.30;2.80;;;;;;;4.96;63.62;99642.47;128611;1290;114844;-67
2023/03/27 11:18:11;;;;;;;3.60;2.00;;;;;;;5.03;63.57;99642.92;128737;1273;115674;-66
2023/03/27 11:21:21;;;;;;;3.40;2.20;;;;;;;5.16;63.40;99653.08;128924;1290;114871;-66
2023/03/27 11:24:32;;;;;;;6.20;2.40;;;;;;;5.30;62.92;99651.98;128964;1271;128057;-65
2023/03/27 11:27:48;;;;;;;4.60;2.60;;;;;;;5.47;62.07;99656.51;129025;1288;115283;-66
2023/03/27 11:30:56;;;;;;;9.10;4.60;;;;;;;5.54;61.81;99660.84;129540;1267;115109;-66
2023/03/27 11:34:27;;;;;;;3.40;2.00;;;;;;;5.61;61.78;99655.58;130080;1259;114782;-66
2023/03/27 11:37:39;;;;;;;5.10;2.30;;;;;;;5.69;61.52;99654.56;129675;1281;114955;-65
2023/03/27 11:40:48;;;;;;;4.90;3.00;;;;;;;5.78;60.74;99654.05;129392;1266;128126;-66
2023/03/27 11:43:50;;;;;;;3.80;2.10;;;;;;;5.84;60.95;99655.75;129399;1266;115323;-66
2023/03/27 11:47:27;;;;;;;3.50;2.60;;;;;;;5.87;60.58;99658.09;129753;1263;114729;-66
2023/03/27 11:50:41;;;;;;;3.80;2.20;;;;;;;5.95;61.17;99662.38;129259;1267;114881;-65
2023/03/27 11:54:04;;;;;;;4.80;2.20;;;;;;;6.02;60.18;99666.05;129270;1274;116323;-65
2023/03/27 11:57:24;;;;;;;3.50;3.10;;;;;;;6.00;59.49;99667.54;129722;1263;128867;-66
2023/03/27 12:00:31;;;;;;;4.60;2.40;;;;;;;5.90;59.46;99667.56;129834;1262;115164;-65
2023/03/27 12:03:48;;;;;;;2.40;2.20;;;;;;;5.84;58.59;99670.27;129602;1263;114788;-68
2023/03/27 12:07:29;;;;;;;5.50;2.20;;;;;;;5.84;59.09;99672.59;129868;1282;114939;-67
2023/03/27 12:10:36;;;;;;;3.10;1.90;;;;;;;5.90;57.93;99679.77;128704;1272;115018;-66
2023/03/27 12:14:03;;;;;;;5.80;2.20;;;;;;;5.90;58.20;99676.41;129099;1284;126532;-67
2023/03/27 12:17:27;;;;;;;6.40;3.30;;;;;;;5.96;58.14;99679.00;129303;1271;116530;-66
2023/03/27 12:21:14;;;;;;;4.60;2.70;;;;;;;5.99;58.62;99679.27;129422;1267;114881;-66
2023/03/27 12:24:35;;;;;;;7.00;3.90;;;;;;;6.16;59.01;99677.73;129308;1276;115206;-67
2023/03/27 12:27:50;;;;;;;6.70;3.20;;;;;;;6.34;58.89;99678.21;129456;1285;114916;-66
2023/03/27 12:30:56;;;;;;;5.90;3.60;;;;;;;6.48;58.04;99672.64;129366;1262;128465;-66
2023/03/27 12:34:18;;;;;;;9.10;4.40;;;;;;;6.59;58.53;99671.45;129552;1268;115264;-67
2023/03/27 12:37:30;;;;;;;4.20;2.20;;;;;;;6.76;57.83;99676.05;129394;1271;114922;-67
2023/03/27 12:40:40;;;;;;;7.90;2.50;;;;;;;6.83;56.36;99673.79;129455;1264;114934;-66
2023/03/27 12:43:44;;;;;;;3.10;1.80;;;;;;;6.89;56.63;99672.64;129270;1278;116819;-66
2023/03/27 12:47:15;;;;;;;5.90;2.10;;;;;;;6.96;56.16;99673.55;129973;1260;126521;-66
2023/03/27 12:50:25;;;;;;;9.10;3.90;;;;;;;6.97;54.78;99679.40;130227;1267;115262;-66
2023/03/27 12:53:27;;;;;;;4.90;2.30;;;;;;;6.92;54.74;99682.30;129812;1271;114914;-66
2023/03/27 12:56:31;;;;;;;8.70;3.90;;;;;;;6.87;54.59;99690.86;130220;1259;114805;-67
2023/03/27 13:00:06;;;;;;;5.80;2.80;;;;;;;6.85;54.82;99695.20;130294;1277;114744;-66
2023/03/27 13:03:27;;;;;;;4.70;2.50;;;;;;;6.92;54.72;99701.64;130217;1254;127702;-67
2023/03/27 13:06:54;;;;;;;5.10;2.80;;;;;;;6.94;54.50;99698.86;130238;1260;115205;-65
2023/03/27 13:09:56;;;;;;;6.20;3.10;;;;;;;6.97;54.15;99703.68;129979;1262;114789;-65
2023/03/27 13:13:20;;;;;;;6.30;3.00;;;;;;;6.98;54.52;99706.33;130176;1278;115163;-66
2023/03/27 13:16:29;;;;;;;5.30;2.30;;;;;;;7.00;54.08;99708.73;130172;1265;114813;-66
2023/03/27 13:19:44;;;;;;;4.90;3.00;;;;;;;7.01;53.75;99705.84;130247;1267;131379;-67
2023/03/27 13:23:12;;;;;;;4.30;2.70;;;;;;;7.06;53.37;99711.11;130152;1259;115189;-67
2023/03/27 13:26:26;;;;;;;4.50;2.20;;;;;;;7.06;52.55;99719.64;129523;1268;114939;-66
2023/03/27 13:29:33;;;;;;;2.40;1.60;;;;;;;7.05;52.65;99723.44;129700;1284;115463;-66
2023/03/27 13:32:36;;;;;;;3.20;2.20;;;;;;;7.02;53.09;99728.54;129189;1284;114754;-66
2023/03/27 13:36:09;;;;;;;5.10;2.10;;;;;;;7.02;52.12;99722.66;129642;1262;128781;-66
2023/03/27 13:39:23;;;;;;;3.80;2.40;;;;;;;6.95;51.45;99726.52;129059;1271;115216;-67
2023/03/27 13:42:38;;;;;;;3.10;2.30;;;;;;;6.91;51.43;99728.32;129038;1273;114894;-66
2023/03/27 13:45:51;;;;;;;2.80;1.70;;;;;;;6.84;51.43;99728.74;129070;1290;115175;-66
2023/03/27 13:49:05;;;;;;;3.30;1.80;;;;;;;6.81;51.98;99723.20;129156;1280;115485;-66
2023/03/27 13:52:26;;;;;;;1.20;1.10;;;;;;;6.84;51.37;99721.87;128687;1274;128852;-66
2023/03/27 13:55:53;;;;;;;1.30;1.20;;;;;;;6.80;50.83;99722.19;128752;1273;116355;-67
2023/03/27 13:59:21;;;;;;;22.50;8.50;;;;;;;6.70;50.57;99724.94;129078;1271;114846;-67
2023/03/27 14:02:32;;;;;;;4.80;2.50;;;;;;;6.59;50.24;99729.29;128981;1280;114765;-68
2023/03/27 14:06:16;;;;;;;2.20;1.10;;;;;;;6.58;50.80;99743.02;129335;1271;114934;-66
2023/03/27 14:09:28;;;;;;;2.20;1.40;;;;;;;6.64;49.54;99741.52;129427;1267;128904;-67
2023/03/27 14:13:18;;;;;;;2.20;1.50;;;;;;;6.70;50.02;99743.02;129597;1281;115282;-67
2023/03/27 14:16:27;;;;;;;1.60;1.20;;;;;;;6.78;50.03;99745.89;129070;1275;114760;-66
2023/03/27 14:19:38;;;;;;;2.30;1.20;;;;;;;6.79;49.39;99751.84;129477;1269;115167;-65
2023/03/27 14:22:43;;;;;;;1.90;1.40;;;;;;;6.75;48.39;99757.56;129163;1266;114878;-68
2023/03/27 14:25:50;;;;;;;3.30;1.80;;;;;;;6.66;48.37;99758.84;129234;1265;128267;-69
2023/03/27 14:28:56;;;;;;;2.30;1.40;;;;;;;6.57;48.53;99763.45;129702;1266;114749;-70
2023/03/27 14:32:05;;;;;;;2.40;1.70;;;;;;;6.50;48.81;99766.20;129771;1273;114921;-70
2023/03/27 14:35:35;;;;;;;3.00;1.40;;;;;;;6.52;48.84;99768.78;129673;1274;114916;-71
2023/03/27 14:38:37;;;;;;;2.00;1.30;;;;;;;6.54;47.31;99767.99;129473;1267;114931;-71